PCM7688 KSBP-KONT
Flight info
| Callsign | PCM7688 |
|---|---|
| Flight time | 1h 31m |
| Altitude | 7000 |
| Route | GVO RZS V186 HENER FIM V186 PDZ |
| Aircraft | C208/L-SDFGR/C |
Departure
| Time | 2026-05-03 22:09 |
|---|---|
| Airport | San Luis County Regional Airport (KSBP) |
Arrival
| Time | 2026-05-03 23:40 |
|---|---|
| Airport | Ontario International Airport (KONT) |
| Time | Latitude | Longitude | Altitude | Speed | Heading |
|---|---|---|---|---|---|
| 2026-05-03 21:55 | 35.23413 | -120.63277 | 183 ft | 0 kts | 46° |
| 2026-05-03 22:00 | 35.23410 | -120.63271 | 183 ft | 2 kts | 175° |
| 2026-05-03 22:00 | 35.23409 | -120.63290 | 183 ft | 4 kts | 307° |
| 2026-05-03 22:00 | 35.23414 | -120.63300 | 183 ft | 0 kts | 306° |
| 2026-05-03 22:01 | 35.23416 | -120.63302 | 183 ft | 2 kts | 306° |
| 2026-05-03 22:01 | 35.23437 | -120.63340 | 183 ft | 9 kts | 304° |
| 2026-05-03 22:01 | 35.23416 | -120.63355 | 183 ft | 13 kts | 125° |
| 2026-05-03 22:01 | 35.23360 | -120.63258 | 183 ft | 14 kts | 124° |
| 2026-05-03 22:02 | 35.23320 | -120.63198 | 183 ft | 3 kts | 230° |
| 2026-05-03 22:02 | 35.23319 | -120.63202 | 183 ft | 0 kts | 261° |
| 2026-05-03 22:07 | 35.23318 | -120.63213 | 183 ft | 4 kts | 261° |
| 2026-05-03 22:07 | 35.23291 | -120.63271 | 183 ft | 12 kts | 213° |
| 2026-05-03 22:07 | 35.23287 | -120.63321 | 183 ft | 0 kts | 303° |
| 2026-05-03 22:07 | 35.23351 | -120.63434 | 182 ft | 38 kts | 304° |
| 2026-05-03 22:08 | 35.23577 | -120.63831 | 194 ft | 73 kts | 304° |
| 2026-05-03 22:08 | 35.23870 | -120.64377 | 322 ft | 78 kts | 298° |
| 2026-05-03 22:08 | 35.24124 | -120.64950 | 523 ft | 75 kts | 294° |
| 2026-05-03 22:08 | 35.24348 | -120.65529 | 670 ft | 77 kts | 297° |
| 2026-05-03 22:09 | 35.24595 | -120.66113 | 860 ft | 76 kts | 297° |
| 2026-05-03 22:09 | 35.24833 | -120.66687 | 1023 ft | 72 kts | 294° |
| 2026-05-03 22:09 | 35.25093 | -120.67209 | 1146 ft | 71 kts | 296° |
| 2026-05-03 22:10 | 35.25063 | -120.68050 | 1342 ft | 84 kts | 162° |
| 2026-05-03 22:10 | 35.24473 | -120.67920 | 1450 ft | 91 kts | 187° |
| 2026-05-03 22:10 | 35.23872 | -120.67546 | 1541 ft | 107 kts | 145° |
| 2026-05-03 22:10 | 35.23259 | -120.66960 | 1641 ft | 117 kts | 147° |
| 2026-05-03 22:11 | 35.22587 | -120.66314 | 1745 ft | 129 kts | 149° |
| 2026-05-03 22:11 | 35.21802 | -120.65687 | 1835 ft | 140 kts | 151° |
| 2026-05-03 22:11 | 35.20996 | -120.65021 | 2014 ft | 137 kts | 151° |
| 2026-05-03 22:11 | 35.20225 | -120.64382 | 2266 ft | 130 kts | 150° |
| 2026-05-03 22:12 | 35.19482 | -120.63760 | 2516 ft | 128 kts | 151° |
| 2026-05-03 22:12 | 35.18754 | -120.63154 | 2763 ft | 125 kts | 150° |
| 2026-05-03 22:12 | 35.18040 | -120.62563 | 3002 ft | 122 kts | 151° |
| 2026-05-03 22:12 | 35.17358 | -120.61992 | 3254 ft | 118 kts | 151° |
| 2026-05-03 22:13 | 35.16676 | -120.61427 | 3497 ft | 116 kts | 151° |
| 2026-05-03 22:13 | 35.16014 | -120.60876 | 3740 ft | 114 kts | 150° |
| 2026-05-03 22:13 | 35.15366 | -120.60335 | 3970 ft | 112 kts | 150° |
| 2026-05-03 22:13 | 35.14722 | -120.59800 | 4216 ft | 112 kts | 150° |
| 2026-05-03 22:14 | 35.14069 | -120.59265 | 4433 ft | 113 kts | 150° |
| 2026-05-03 22:14 | 35.13430 | -120.58731 | 4666 ft | 113 kts | 150° |
| 2026-05-03 22:14 | 35.12785 | -120.58196 | 4896 ft | 111 kts | 150° |
| 2026-05-03 22:14 | 35.12148 | -120.57664 | 5114 ft | 110 kts | 149° |
| 2026-05-03 22:15 | 35.11517 | -120.57142 | 5339 ft | 109 kts | 149° |
| 2026-05-03 22:15 | 35.10892 | -120.56620 | 5559 ft | 109 kts | 149° |
| 2026-05-03 22:15 | 35.10268 | -120.56101 | 5789 ft | 108 kts | 148° |
| 2026-05-03 22:15 | 35.09643 | -120.55585 | 6015 ft | 108 kts | 149° |
| 2026-05-03 22:16 | 35.09023 | -120.55071 | 6239 ft | 107 kts | 148° |
| 2026-05-03 22:16 | 35.08418 | -120.54569 | 6461 ft | 104 kts | 149° |
| 2026-05-03 22:16 | 35.07826 | -120.54077 | 6669 ft | 102 kts | 149° |
| 2026-05-03 22:16 | 35.07221 | -120.53577 | 6804 ft | 108 kts | 149° |
| 2026-05-03 22:17 | 35.06580 | -120.53048 | 6940 ft | 114 kts | 149° |
| 2026-05-03 22:17 | 35.05904 | -120.52488 | 7026 ft | 124 kts | 149° |
| 2026-05-03 22:17 | 35.05155 | -120.51874 | 7030 ft | 135 kts | 149° |
| 2026-05-03 22:17 | 35.04355 | -120.51213 | 7029 ft | 143 kts | 148° |
| 2026-05-03 22:18 | 35.03518 | -120.50521 | 7026 ft | 148 kts | 148° |
| 2026-05-03 22:18 | 35.02664 | -120.49813 | 7023 ft | 149 kts | 149° |
| 2026-05-03 22:18 | 35.01808 | -120.49102 | 7028 ft | 149 kts | 149° |
| 2026-05-03 22:18 | 35.00949 | -120.48390 | 7021 ft | 149 kts | 148° |
| 2026-05-03 22:19 | 35.00092 | -120.47682 | 7025 ft | 149 kts | 148° |
| 2026-05-03 22:19 | 34.99240 | -120.46976 | 7024 ft | 148 kts | 148° |
| 2026-05-03 22:19 | 34.98394 | -120.46276 | 7021 ft | 147 kts | 148° |
| 2026-05-03 22:19 | 34.97548 | -120.45578 | 7018 ft | 146 kts | 148° |
| 2026-05-03 22:20 | 34.96708 | -120.44882 | 7021 ft | 145 kts | 148° |
| 2026-05-03 22:20 | 34.95870 | -120.44190 | 7014 ft | 145 kts | 148° |
| 2026-05-03 22:20 | 34.95033 | -120.43498 | 7017 ft | 145 kts | 148° |
| 2026-05-03 22:20 | 34.94197 | -120.42806 | 7011 ft | 146 kts | 148° |
| 2026-05-03 22:21 | 34.93358 | -120.42115 | 7010 ft | 146 kts | 148° |
| 2026-05-03 22:21 | 34.92522 | -120.41425 | 7010 ft | 144 kts | 148° |
| 2026-05-03 22:21 | 34.91694 | -120.40740 | 7009 ft | 144 kts | 148° |
| 2026-05-03 22:21 | 34.90860 | -120.40053 | 7010 ft | 145 kts | 148° |
| 2026-05-03 22:22 | 34.90023 | -120.39362 | 7009 ft | 145 kts | 148° |
| 2026-05-03 22:22 | 34.89185 | -120.38671 | 7008 ft | 145 kts | 148° |
| 2026-05-03 22:22 | 34.88349 | -120.37982 | 7005 ft | 145 kts | 148° |
| 2026-05-03 22:22 | 34.87514 | -120.37292 | 7008 ft | 145 kts | 148° |
| 2026-05-03 22:23 | 34.86690 | -120.36613 | 7006 ft | 145 kts | 148° |
| 2026-05-03 22:23 | 34.85857 | -120.35927 | 7008 ft | 144 kts | 148° |
| 2026-05-03 22:23 | 34.85029 | -120.35244 | 7011 ft | 144 kts | 148° |
| 2026-05-03 22:23 | 34.84200 | -120.34563 | 7007 ft | 144 kts | 148° |
| 2026-05-03 22:24 | 34.83369 | -120.33878 | 7005 ft | 144 kts | 149° |
| 2026-05-03 22:24 | 34.82543 | -120.33197 | 7007 ft | 143 kts | 148° |
| 2026-05-03 22:24 | 34.81714 | -120.32516 | 7005 ft | 144 kts | 148° |
| 2026-05-03 22:24 | 34.80884 | -120.31833 | 7007 ft | 144 kts | 149° |
| 2026-05-03 22:25 | 34.80053 | -120.31149 | 7009 ft | 145 kts | 148° |
| 2026-05-03 22:25 | 34.79214 | -120.30460 | 7010 ft | 146 kts | 148° |
| 2026-05-03 22:25 | 34.78379 | -120.29772 | 7010 ft | 145 kts | 148° |
| 2026-05-03 22:25 | 34.77544 | -120.29085 | 7017 ft | 145 kts | 148° |
| 2026-05-03 22:26 | 34.76704 | -120.28396 | 7018 ft | 146 kts | 148° |
| 2026-05-03 22:26 | 34.75863 | -120.27706 | 7015 ft | 146 kts | 148° |
| 2026-05-03 22:26 | 34.75023 | -120.27014 | 7016 ft | 146 kts | 148° |
| 2026-05-03 22:26 | 34.74180 | -120.26324 | 7016 ft | 146 kts | 148° |
| 2026-05-03 22:27 | 34.73341 | -120.25634 | 7016 ft | 145 kts | 148° |
| 2026-05-03 22:27 | 34.72504 | -120.24948 | 6996 ft | 145 kts | 148° |
| 2026-05-03 22:27 | 34.71673 | -120.24266 | 7000 ft | 143 kts | 148° |
| 2026-05-03 22:27 | 34.70856 | -120.23594 | 7000 ft | 142 kts | 148° |
| 2026-05-03 22:28 | 34.70033 | -120.22921 | 7000 ft | 143 kts | 148° |
| 2026-05-03 22:28 | 34.69204 | -120.22241 | 7002 ft | 144 kts | 148° |
| 2026-05-03 22:28 | 34.68375 | -120.21561 | 7001 ft | 143 kts | 148° |
| 2026-05-03 22:28 | 34.67555 | -120.20888 | 6997 ft | 142 kts | 147° |
| 2026-05-03 22:29 | 34.66735 | -120.20216 | 7005 ft | 143 kts | 148° |
| 2026-05-03 22:29 | 34.65906 | -120.19540 | 7003 ft | 144 kts | 148° |
| 2026-05-03 22:29 | 34.65093 | -120.18871 | 7007 ft | 143 kts | 147° |
| 2026-05-03 22:29 | 34.64265 | -120.18195 | 7004 ft | 144 kts | 147° |
| 2026-05-03 22:30 | 34.63436 | -120.17517 | 7004 ft | 143 kts | 147° |
| 2026-05-03 22:30 | 34.62609 | -120.16839 | 7003 ft | 143 kts | 147° |
| 2026-05-03 22:30 | 34.61779 | -120.16160 | 7003 ft | 144 kts | 147° |
| 2026-05-03 22:30 | 34.60945 | -120.15479 | 7003 ft | 144 kts | 147° |
| 2026-05-03 22:31 | 34.60113 | -120.14797 | 7005 ft | 145 kts | 147° |
| 2026-05-03 22:31 | 34.59279 | -120.14115 | 7004 ft | 144 kts | 147° |
| 2026-05-03 22:31 | 34.58446 | -120.13435 | 7004 ft | 144 kts | 147° |
| 2026-05-03 22:31 | 34.57615 | -120.12756 | 7000 ft | 143 kts | 148° |
| 2026-05-03 22:32 | 34.56791 | -120.12081 | 6997 ft | 142 kts | 147° |
| 2026-05-03 22:32 | 34.55969 | -120.11410 | 7001 ft | 143 kts | 147° |
| 2026-05-03 22:32 | 34.55136 | -120.10731 | 6999 ft | 145 kts | 147° |
| 2026-05-03 22:32 | 34.54296 | -120.10046 | 6999 ft | 145 kts | 148° |
| 2026-05-03 22:33 | 34.53502 | -120.09325 | 6998 ft | 143 kts | 134° |
| 2026-05-03 22:33 | 34.53084 | -120.08233 | 7005 ft | 147 kts | 104° |
| 2026-05-03 22:33 | 34.53002 | -120.06985 | 7005 ft | 149 kts | 99° |
| 2026-05-03 22:33 | 34.52916 | -120.05724 | 7008 ft | 151 kts | 99° |
| 2026-05-03 22:34 | 34.52829 | -120.04444 | 7013 ft | 153 kts | 99° |
| 2026-05-03 22:34 | 34.52741 | -120.03152 | 7017 ft | 154 kts | 99° |
| 2026-05-03 22:34 | 34.52655 | -120.01849 | 7014 ft | 156 kts | 99° |
| 2026-05-03 22:34 | 34.52567 | -120.00539 | 7014 ft | 156 kts | 99° |
| 2026-05-03 22:35 | 34.52476 | -119.99221 | 7017 ft | 158 kts | 99° |
| 2026-05-03 22:35 | 34.52386 | -119.97889 | 7013 ft | 159 kts | 98° |
| 2026-05-03 22:35 | 34.52298 | -119.96553 | 7014 ft | 159 kts | 99° |
| 2026-05-03 22:35 | 34.52206 | -119.95213 | 7014 ft | 160 kts | 99° |
| 2026-05-03 22:36 | 34.52114 | -119.93867 | 7024 ft | 160 kts | 99° |
| 2026-05-03 22:36 | 34.52023 | -119.92522 | 7020 ft | 160 kts | 98° |
| 2026-05-03 22:36 | 34.51933 | -119.91183 | 7019 ft | 159 kts | 99° |
| 2026-05-03 22:36 | 34.51841 | -119.89852 | 7017 ft | 158 kts | 99° |
| 2026-05-03 22:37 | 34.51782 | -119.88970 | 7011 ft | 158 kts | 99° |
| 2026-05-03 22:37 | 34.51662 | -119.87212 | 7011 ft | 154 kts | 98° |
| 2026-05-03 22:37 | 34.51575 | -119.85958 | 7009 ft | 148 kts | 99° |
| 2026-05-03 22:37 | 34.51519 | -119.85127 | 7008 ft | 144 kts | 99° |
| 2026-05-03 22:38 | 34.51436 | -119.83918 | 7009 ft | 145 kts | 99° |
| 2026-05-03 22:38 | 34.51351 | -119.82693 | 7009 ft | 146 kts | 99° |
| 2026-05-03 22:38 | 34.51239 | -119.81073 | 7010 ft | 143 kts | 99° |
| 2026-05-03 22:38 | 34.51183 | -119.80265 | 7011 ft | 143 kts | 99° |
| 2026-05-03 22:39 | 34.51099 | -119.79049 | 7016 ft | 146 kts | 99° |
| 2026-05-03 22:39 | 34.51011 | -119.77810 | 7014 ft | 148 kts | 99° |
| 2026-05-03 22:39 | 34.50730 | -119.76637 | 7010 ft | 144 kts | 126° |
| 2026-05-03 22:39 | 34.50160 | -119.75632 | 7014 ft | 146 kts | 125° |
| 2026-05-03 22:40 | 34.49605 | -119.74593 | 7021 ft | 147 kts | 125° |
| 2026-05-03 22:40 | 34.49041 | -119.73553 | 7015 ft | 147 kts | 126° |
| 2026-05-03 22:40 | 34.48490 | -119.72532 | 7023 ft | 148 kts | 126° |
| 2026-05-03 22:40 | 34.47924 | -119.71489 | 7028 ft | 149 kts | 126° |
| 2026-05-03 22:41 | 34.47351 | -119.70434 | 7021 ft | 150 kts | 126° |
| 2026-05-03 22:41 | 34.46778 | -119.69378 | 7023 ft | 149 kts | 126° |
| 2026-05-03 22:41 | 34.46210 | -119.68327 | 7019 ft | 149 kts | 126° |
| 2026-05-03 22:41 | 34.45641 | -119.67277 | 7021 ft | 150 kts | 126° |
| 2026-05-03 22:42 | 34.45067 | -119.66223 | 7019 ft | 150 kts | 126° |
| 2026-05-03 22:42 | 34.44496 | -119.65171 | 7014 ft | 149 kts | 126° |
| 2026-05-03 22:42 | 34.43927 | -119.64122 | 7016 ft | 149 kts | 126° |
| 2026-05-03 22:42 | 34.43356 | -119.63074 | 7010 ft | 149 kts | 126° |
| 2026-05-03 22:43 | 34.42786 | -119.62025 | 7009 ft | 149 kts | 126° |
| 2026-05-03 22:43 | 34.42219 | -119.60979 | 7007 ft | 148 kts | 126° |
| 2026-05-03 22:43 | 34.41652 | -119.59939 | 7003 ft | 148 kts | 126° |
| 2026-05-03 22:43 | 34.41089 | -119.58901 | 6998 ft | 147 kts | 126° |
| 2026-05-03 22:44 | 34.40527 | -119.57870 | 7000 ft | 146 kts | 126° |
| 2026-05-03 22:44 | 34.39968 | -119.56843 | 7000 ft | 146 kts | 126° |
| 2026-05-03 22:44 | 34.39412 | -119.55819 | 6997 ft | 146 kts | 126° |
| 2026-05-03 22:44 | 34.38853 | -119.54795 | 7000 ft | 146 kts | 126° |
| 2026-05-03 22:45 | 34.38295 | -119.53770 | 6999 ft | 146 kts | 126° |
| 2026-05-03 22:45 | 34.37735 | -119.52743 | 6998 ft | 146 kts | 126° |
| 2026-05-03 22:45 | 34.37175 | -119.51715 | 6999 ft | 146 kts | 126° |
| 2026-05-03 22:45 | 34.36615 | -119.50688 | 6993 ft | 146 kts | 126° |
| 2026-05-03 22:46 | 34.36057 | -119.49664 | 6996 ft | 146 kts | 126° |
| 2026-05-03 22:46 | 34.35498 | -119.48641 | 6995 ft | 145 kts | 126° |
| 2026-05-03 22:46 | 34.34942 | -119.47621 | 6994 ft | 145 kts | 126° |
| 2026-05-03 22:46 | 34.34385 | -119.46601 | 6995 ft | 145 kts | 126° |
| 2026-05-03 22:47 | 34.33829 | -119.45583 | 7005 ft | 145 kts | 126° |
| 2026-05-03 22:47 | 34.33274 | -119.44566 | 7006 ft | 145 kts | 126° |
| 2026-05-03 22:47 | 34.32718 | -119.43548 | 7006 ft | 145 kts | 126° |
| 2026-05-03 22:47 | 34.32161 | -119.42528 | 6996 ft | 145 kts | 126° |
| 2026-05-03 22:48 | 34.31737 | -119.41422 | 7004 ft | 149 kts | 102° |
| 2026-05-03 22:48 | 34.31791 | -119.40150 | 7008 ft | 153 kts | 88° |
| 2026-05-03 22:48 | 34.31892 | -119.38873 | 7013 ft | 153 kts | 90° |
| 2026-05-03 22:48 | 34.31988 | -119.37587 | 7012 ft | 154 kts | 90° |
| 2026-05-03 22:49 | 34.32088 | -119.36296 | 7013 ft | 154 kts | 90° |
| 2026-05-03 22:49 | 34.32187 | -119.35000 | 7016 ft | 155 kts | 89° |
| 2026-05-03 22:49 | 34.32287 | -119.33695 | 7016 ft | 156 kts | 89° |
| 2026-05-03 22:49 | 34.32386 | -119.32388 | 7014 ft | 156 kts | 89° |
| 2026-05-03 22:50 | 34.32487 | -119.31082 | 7016 ft | 156 kts | 90° |
| 2026-05-03 22:50 | 34.32585 | -119.29779 | 7015 ft | 155 kts | 90° |
| 2026-05-03 22:50 | 34.32684 | -119.28482 | 7013 ft | 155 kts | 90° |
| 2026-05-03 22:50 | 34.32782 | -119.27183 | 7010 ft | 155 kts | 90° |
| 2026-05-03 22:51 | 34.32879 | -119.25892 | 7010 ft | 154 kts | 89° |
| 2026-05-03 22:51 | 34.32981 | -119.24602 | 7007 ft | 154 kts | 90° |
| 2026-05-03 22:51 | 34.33077 | -119.23314 | 7009 ft | 154 kts | 90° |
| 2026-05-03 22:51 | 34.33171 | -119.22038 | 7006 ft | 155 kts | 90° |
| 2026-05-03 22:52 | 34.33269 | -119.20735 | 7006 ft | 156 kts | 90° |
| 2026-05-03 22:52 | 34.33369 | -119.19405 | 7013 ft | 157 kts | 90° |
| 2026-05-03 22:52 | 34.33467 | -119.18110 | 7009 ft | 156 kts | 89° |
| 2026-05-03 22:52 | 34.33563 | -119.16804 | 7011 ft | 156 kts | 90° |
| 2026-05-03 22:53 | 34.33663 | -119.15496 | 7006 ft | 156 kts | 90° |
| 2026-05-03 22:53 | 34.33761 | -119.14190 | 7008 ft | 156 kts | 90° |
| 2026-05-03 22:53 | 34.33859 | -119.12883 | 7007 ft | 156 kts | 90° |
| 2026-05-03 22:53 | 34.33956 | -119.11569 | 7006 ft | 157 kts | 90° |
| 2026-05-03 22:54 | 34.34054 | -119.10250 | 7008 ft | 157 kts | 90° |
| 2026-05-03 22:54 | 34.34152 | -119.08935 | 7006 ft | 156 kts | 90° |
| 2026-05-03 22:54 | 34.34250 | -119.07628 | 7009 ft | 156 kts | 90° |
| 2026-05-03 22:54 | 34.34346 | -119.06322 | 7003 ft | 156 kts | 90° |
| 2026-05-03 22:55 | 34.34443 | -119.05018 | 7012 ft | 156 kts | 90° |
| 2026-05-03 22:55 | 34.34538 | -119.03714 | 7007 ft | 155 kts | 90° |
| 2026-05-03 22:55 | 34.34635 | -119.02413 | 7006 ft | 155 kts | 90° |
| 2026-05-03 22:55 | 34.34728 | -119.01119 | 7010 ft | 155 kts | 90° |
| 2026-05-03 22:56 | 34.34826 | -118.99813 | 7008 ft | 156 kts | 90° |
| 2026-05-03 22:56 | 34.34922 | -118.98504 | 7007 ft | 156 kts | 89° |
| 2026-05-03 22:56 | 34.35019 | -118.97205 | 7008 ft | 155 kts | 90° |
| 2026-05-03 22:56 | 34.35114 | -118.95897 | 7006 ft | 157 kts | 90° |
| 2026-05-03 22:57 | 34.35210 | -118.94587 | 7003 ft | 155 kts | 91° |
| 2026-05-03 22:57 | 34.35302 | -118.93294 | 7006 ft | 154 kts | 91° |
| 2026-05-03 22:57 | 34.35398 | -118.92019 | 7008 ft | 151 kts | 91° |
| 2026-05-03 22:57 | 34.35490 | -118.90754 | 6995 ft | 151 kts | 91° |
| 2026-05-03 22:58 | 34.35597 | -118.89519 | 7010 ft | 145 kts | 89° |
| 2026-05-03 22:58 | 34.35657 | -118.88300 | 7001 ft | 143 kts | 99° |
| 2026-05-03 22:58 | 34.35365 | -118.87188 | 7005 ft | 140 kts | 120° |
| 2026-05-03 22:58 | 34.34975 | -118.86085 | 7013 ft | 145 kts | 117° |
| 2026-05-03 22:59 | 34.34591 | -118.84942 | 7017 ft | 148 kts | 117° |
| 2026-05-03 22:59 | 34.34202 | -118.83794 | 7009 ft | 150 kts | 117° |
| 2026-05-03 22:59 | 34.33799 | -118.82602 | 7011 ft | 152 kts | 117° |
| 2026-05-03 22:59 | 34.33397 | -118.81427 | 7005 ft | 154 kts | 117° |
| 2026-05-03 23:00 | 34.32992 | -118.80228 | 7004 ft | 156 kts | 117° |
| 2026-05-03 23:00 | 34.32574 | -118.79009 | 7005 ft | 158 kts | 117° |
| 2026-05-03 23:00 | 34.32159 | -118.77787 | 6987 ft | 156 kts | 117° |
| 2026-05-03 23:00 | 34.31747 | -118.76585 | 6985 ft | 154 kts | 117° |
| 2026-05-03 23:01 | 34.31343 | -118.75390 | 6984 ft | 153 kts | 118° |
| 2026-05-03 23:01 | 34.30931 | -118.74191 | 6990 ft | 154 kts | 117° |
| 2026-05-03 23:01 | 34.30520 | -118.72981 | 6990 ft | 156 kts | 117° |
| 2026-05-03 23:01 | 34.30104 | -118.71767 | 6992 ft | 157 kts | 117° |
| 2026-05-03 23:02 | 34.29686 | -118.70547 | 6993 ft | 157 kts | 117° |
| 2026-05-03 23:02 | 34.29268 | -118.69322 | 6996 ft | 158 kts | 117° |
| 2026-05-03 23:02 | 34.28846 | -118.68088 | 6998 ft | 159 kts | 117° |
| 2026-05-03 23:02 | 34.28424 | -118.66850 | 6992 ft | 159 kts | 117° |
| 2026-05-03 23:03 | 34.27999 | -118.65616 | 6988 ft | 158 kts | 117° |
| 2026-05-03 23:03 | 34.27581 | -118.64391 | 6995 ft | 157 kts | 117° |
| 2026-05-03 23:03 | 34.27163 | -118.63166 | 6992 ft | 158 kts | 117° |
| 2026-05-03 23:03 | 34.26742 | -118.61943 | 7000 ft | 157 kts | 117° |
| 2026-05-03 23:04 | 34.26325 | -118.60724 | 7002 ft | 157 kts | 117° |
| 2026-05-03 23:04 | 34.25908 | -118.59509 | 6997 ft | 156 kts | 117° |
| 2026-05-03 23:04 | 34.25493 | -118.58301 | 6992 ft | 155 kts | 117° |
| 2026-05-03 23:04 | 34.25082 | -118.57096 | 6993 ft | 155 kts | 117° |
| 2026-05-03 23:05 | 34.24670 | -118.55898 | 6989 ft | 154 kts | 117° |
| 2026-05-03 23:05 | 34.24260 | -118.54704 | 6990 ft | 153 kts | 117° |
| 2026-05-03 23:05 | 34.23851 | -118.53515 | 6986 ft | 153 kts | 117° |
| 2026-05-03 23:05 | 34.23443 | -118.52330 | 6994 ft | 152 kts | 117° |
| 2026-05-03 23:06 | 34.23039 | -118.51155 | 6987 ft | 151 kts | 117° |
| 2026-05-03 23:06 | 34.22640 | -118.49990 | 6989 ft | 149 kts | 117° |
| 2026-05-03 23:06 | 34.22257 | -118.48830 | 6987 ft | 149 kts | 113° |
| 2026-05-03 23:06 | 34.21913 | -118.47656 | 6991 ft | 148 kts | 115° |
| 2026-05-03 23:07 | 34.21553 | -118.46496 | 6989 ft | 147 kts | 115° |
| 2026-05-03 23:07 | 34.21198 | -118.45335 | 6989 ft | 147 kts | 115° |
| 2026-05-03 23:07 | 34.20845 | -118.44172 | 6992 ft | 147 kts | 115° |
| 2026-05-03 23:07 | 34.20492 | -118.43010 | 6991 ft | 147 kts | 115° |
| 2026-05-03 23:08 | 34.20140 | -118.41847 | 7012 ft | 147 kts | 115° |
| 2026-05-03 23:08 | 34.19787 | -118.40685 | 7012 ft | 148 kts | 115° |
| 2026-05-03 23:08 | 34.19434 | -118.39520 | 7009 ft | 148 kts | 115° |
| 2026-05-03 23:08 | 34.19080 | -118.38354 | 7011 ft | 148 kts | 115° |
| 2026-05-03 23:09 | 34.18726 | -118.37187 | 7011 ft | 148 kts | 115° |
| 2026-05-03 23:09 | 34.18372 | -118.36023 | 7009 ft | 148 kts | 114° |
| 2026-05-03 23:09 | 34.18019 | -118.34860 | 7008 ft | 147 kts | 114° |
| 2026-05-03 23:09 | 34.17665 | -118.33699 | 7009 ft | 147 kts | 114° |
| 2026-05-03 23:10 | 34.17313 | -118.32537 | 7005 ft | 147 kts | 114° |
| 2026-05-03 23:10 | 34.16960 | -118.31377 | 7008 ft | 147 kts | 114° |
| 2026-05-03 23:10 | 34.16607 | -118.30218 | 7007 ft | 147 kts | 114° |
| 2026-05-03 23:10 | 34.16254 | -118.29058 | 7011 ft | 147 kts | 115° |
| 2026-05-03 23:11 | 34.15901 | -118.27897 | 7009 ft | 148 kts | 115° |
| 2026-05-03 23:11 | 34.15546 | -118.26734 | 7009 ft | 147 kts | 115° |
| 2026-05-03 23:11 | 34.15193 | -118.25573 | 7009 ft | 147 kts | 115° |
| 2026-05-03 23:11 | 34.14840 | -118.24413 | 7009 ft | 147 kts | 115° |
| 2026-05-03 23:12 | 34.14485 | -118.23252 | 7008 ft | 148 kts | 115° |
| 2026-05-03 23:12 | 34.14130 | -118.22089 | 7006 ft | 148 kts | 115° |
| 2026-05-03 23:12 | 34.13774 | -118.20923 | 7007 ft | 148 kts | 115° |
| 2026-05-03 23:12 | 34.13424 | -118.19774 | 7015 ft | 148 kts | 115° |
| 2026-05-03 23:13 | 34.13070 | -118.18614 | 7015 ft | 147 kts | 115° |
| 2026-05-03 23:13 | 34.12715 | -118.17453 | 7016 ft | 147 kts | 115° |
| 2026-05-03 23:13 | 34.12362 | -118.16294 | 7016 ft | 147 kts | 115° |
| 2026-05-03 23:13 | 34.12007 | -118.15135 | 7020 ft | 147 kts | 116° |
| 2026-05-03 23:14 | 34.11652 | -118.13977 | 7020 ft | 147 kts | 115° |
| 2026-05-03 23:14 | 34.11298 | -118.12819 | 7018 ft | 147 kts | 115° |
| 2026-05-03 23:14 | 34.10944 | -118.11664 | 7017 ft | 146 kts | 115° |
| 2026-05-03 23:14 | 34.10592 | -118.10512 | 7020 ft | 146 kts | 115° |
| 2026-05-03 23:15 | 34.10239 | -118.09359 | 7017 ft | 147 kts | 115° |
| 2026-05-03 23:15 | 34.09885 | -118.08208 | 7018 ft | 146 kts | 115° |
| 2026-05-03 23:15 | 34.09533 | -118.07061 | 7019 ft | 145 kts | 115° |
| 2026-05-03 23:15 | 34.09179 | -118.05906 | 6932 ft | 151 kts | 115° |
| 2026-05-03 23:16 | 34.08803 | -118.04686 | 6752 ft | 157 kts | 115° |
| 2026-05-03 23:16 | 34.08426 | -118.03457 | 6564 ft | 155 kts | 115° |
| 2026-05-03 23:16 | 34.08057 | -118.02253 | 6367 ft | 151 kts | 115° |
| 2026-05-03 23:16 | 34.07697 | -118.01083 | 6160 ft | 146 kts | 116° |
| 2026-05-03 23:17 | 34.07346 | -117.99944 | 5951 ft | 144 kts | 116° |
| 2026-05-03 23:17 | 34.07000 | -117.98816 | 5743 ft | 144 kts | 116° |
| 2026-05-03 23:17 | 34.06649 | -117.97674 | 5553 ft | 146 kts | 115° |
| 2026-05-03 23:17 | 34.06296 | -117.96524 | 5357 ft | 146 kts | 115° |
| 2026-05-03 23:18 | 34.05943 | -117.95376 | 5163 ft | 146 kts | 116° |
| 2026-05-03 23:18 | 34.05588 | -117.94227 | 5006 ft | 144 kts | 115° |
| 2026-05-03 23:18 | 34.05241 | -117.93097 | 5008 ft | 145 kts | 115° |
| 2026-05-03 23:18 | 34.04888 | -117.91950 | 5008 ft | 147 kts | 115° |
| 2026-05-03 23:19 | 34.04528 | -117.90792 | 5006 ft | 148 kts | 115° |
| 2026-05-03 23:19 | 34.04170 | -117.89629 | 4994 ft | 148 kts | 114° |
| 2026-05-03 23:19 | 34.03814 | -117.88469 | 5000 ft | 148 kts | 114° |
| 2026-05-03 23:19 | 34.03451 | -117.87294 | 5007 ft | 150 kts | 115° |
| 2026-05-03 23:20 | 34.03084 | -117.86110 | 5009 ft | 151 kts | 115° |
| 2026-05-03 23:20 | 34.02717 | -117.84922 | 5006 ft | 152 kts | 115° |
| 2026-05-03 23:20 | 34.02348 | -117.83726 | 5012 ft | 152 kts | 115° |
| 2026-05-03 23:20 | 34.01978 | -117.82532 | 5009 ft | 152 kts | 115° |
| 2026-05-03 23:21 | 34.01609 | -117.81340 | 5010 ft | 152 kts | 115° |
| 2026-05-03 23:21 | 34.01242 | -117.80152 | 5010 ft | 151 kts | 115° |
| 2026-05-03 23:21 | 34.00875 | -117.78964 | 5006 ft | 152 kts | 115° |
| 2026-05-03 23:21 | 34.00501 | -117.77768 | 5009 ft | 153 kts | 115° |
| 2026-05-03 23:22 | 33.99730 | -117.75378 | 5005 ft | 153 kts | 118° |
| 2026-05-03 23:22 | 33.99309 | -117.74187 | 4997 ft | 155 kts | 117° |
| 2026-05-03 23:22 | 33.98892 | -117.72987 | 4999 ft | 156 kts | 117° |
| 2026-05-03 23:23 | 33.98472 | -117.71779 | 4997 ft | 157 kts | 117° |
| 2026-05-03 23:23 | 33.98044 | -117.70566 | 4998 ft | 157 kts | 117° |
| 2026-05-03 23:23 | 33.97615 | -117.69351 | 5001 ft | 158 kts | 117° |
| 2026-05-03 23:23 | 33.97187 | -117.68130 | 4999 ft | 159 kts | 117° |
| 2026-05-03 23:24 | 33.96900 | -117.67319 | 4999 ft | 159 kts | 117° |
| 2026-05-03 23:24 | 33.96469 | -117.66093 | 4999 ft | 159 kts | 117° |
| 2026-05-03 23:24 | 33.96038 | -117.64867 | 5000 ft | 159 kts | 117° |
| 2026-05-03 23:24 | 33.95464 | -117.63241 | 5000 ft | 159 kts | 117° |
| 2026-05-03 23:25 | 33.95328 | -117.61915 | 5001 ft | 165 kts | 86° |
| 2026-05-03 23:25 | 33.95464 | -117.60994 | 4997 ft | 165 kts | 83° |
| 2026-05-03 23:25 | 33.95666 | -117.59640 | 5000 ft | 164 kts | 84° |
| 2026-05-03 23:25 | 33.95865 | -117.58301 | 4991 ft | 155 kts | 84° |
| 2026-05-03 23:26 | 33.96049 | -117.57106 | 4972 ft | 135 kts | 84° |
| 2026-05-03 23:26 | 33.96223 | -117.56053 | 4975 ft | 124 kts | 83° |
| 2026-05-03 23:26 | 33.96400 | -117.55025 | 4982 ft | 129 kts | 83° |
| 2026-05-03 23:26 | 33.96578 | -117.53938 | 4995 ft | 137 kts | 84° |
| 2026-05-03 23:27 | 33.96765 | -117.52794 | 4979 ft | 140 kts | 84° |
| 2026-05-03 23:27 | 33.96954 | -117.51638 | 4980 ft | 140 kts | 84° |
| 2026-05-03 23:27 | 33.97138 | -117.50489 | 4981 ft | 140 kts | 84° |
| 2026-05-03 23:27 | 33.97321 | -117.49345 | 4979 ft | 138 kts | 84° |
| 2026-05-03 23:28 | 33.97502 | -117.48202 | 4980 ft | 140 kts | 83° |
| 2026-05-03 23:28 | 33.97688 | -117.47063 | 4976 ft | 137 kts | 83° |
| 2026-05-03 23:28 | 33.97871 | -117.45941 | 4974 ft | 136 kts | 83° |
| 2026-05-03 23:28 | 33.98053 | -117.44799 | 4884 ft | 143 kts | 84° |
| 2026-05-03 23:29 | 33.98239 | -117.43600 | 4772 ft | 147 kts | 84° |
| 2026-05-03 23:29 | 33.98409 | -117.42398 | 4646 ft | 142 kts | 84° |
| 2026-05-03 23:29 | 33.98572 | -117.41244 | 4509 ft | 138 kts | 83° |
| 2026-05-03 23:29 | 33.98729 | -117.40116 | 4371 ft | 136 kts | 84° |
| 2026-05-03 23:30 | 33.98886 | -117.38996 | 4299 ft | 133 kts | 83° |
| 2026-05-03 23:30 | 33.99027 | -117.37930 | 4293 ft | 128 kts | 83° |
| 2026-05-03 23:30 | 33.99177 | -117.36840 | 4298 ft | 134 kts | 84° |
| 2026-05-03 23:30 | 33.99330 | -117.35722 | 4309 ft | 136 kts | 83° |
| 2026-05-03 23:31 | 33.99815 | -117.34764 | 4311 ft | 140 kts | 30° |
| 2026-05-03 23:31 | 34.00752 | -117.34504 | 4312 ft | 139 kts | 5° |
| 2026-05-03 23:31 | 34.01707 | -117.34341 | 4308 ft | 138 kts | 6° |
| 2026-05-03 23:31 | 34.02661 | -117.34226 | 4305 ft | 138 kts | 359° |
| 2026-05-03 23:32 | 34.03620 | -117.34201 | 4305 ft | 138 kts | 359° |
| 2026-05-03 23:32 | 34.04571 | -117.34244 | 4303 ft | 136 kts | 338° |
| 2026-05-03 23:32 | 34.05201 | -117.34971 | 4310 ft | 125 kts | 292° |
| 2026-05-03 23:32 | 34.05615 | -117.35899 | 4303 ft | 125 kts | 294° |
| 2026-05-03 23:33 | 34.05826 | -117.36849 | 4279 ft | 116 kts | 259° |
| 2026-05-03 23:33 | 34.05749 | -117.37845 | 4141 ft | 120 kts | 262° |
| 2026-05-03 23:33 | 34.05687 | -117.38840 | 4081 ft | 119 kts | 264° |
| 2026-05-03 23:33 | 34.05671 | -117.39847 | 3987 ft | 121 kts | 266° |
| 2026-05-03 23:34 | 34.05692 | -117.40853 | 3934 ft | 120 kts | 266° |
| 2026-05-03 23:34 | 34.05698 | -117.41872 | 3811 ft | 124 kts | 265° |
| 2026-05-03 23:34 | 34.05667 | -117.42926 | 3660 ft | 126 kts | 261° |
| 2026-05-03 23:34 | 34.05662 | -117.43957 | 3510 ft | 119 kts | 269° |
| 2026-05-03 23:35 | 34.05680 | -117.44922 | 3345 ft | 112 kts | 267° |
| 2026-05-03 23:35 | 34.05692 | -117.45820 | 3204 ft | 100 kts | 266° |
| 2026-05-03 23:35 | 34.05689 | -117.46644 | 2989 ft | 97 kts | 267° |
| 2026-05-03 23:35 | 34.05691 | -117.47440 | 2806 ft | 89 kts | 267° |
| 2026-05-03 23:36 | 34.05690 | -117.48162 | 2633 ft | 85 kts | 265° |
| 2026-05-03 23:36 | 34.05687 | -117.48888 | 2527 ft | 86 kts | 268° |
| 2026-05-03 23:36 | 34.05686 | -117.49600 | 2406 ft | 84 kts | 266° |
| 2026-05-03 23:36 | 34.05690 | -117.50297 | 2299 ft | 83 kts | 264° |
| 2026-05-03 23:37 | 34.05688 | -117.50988 | 2195 ft | 82 kts | 264° |
| 2026-05-03 23:37 | 34.05687 | -117.51652 | 2076 ft | 76 kts | 266° |
| 2026-05-03 23:37 | 34.05689 | -117.52248 | 1966 ft | 67 kts | 265° |
| 2026-05-03 23:37 | 34.05679 | -117.52805 | 1885 ft | 72 kts | 261° |
| 2026-05-03 23:38 | 34.05684 | -117.53441 | 1786 ft | 75 kts | 264° |
| 2026-05-03 23:38 | 34.05688 | -117.54036 | 1679 ft | 69 kts | 264° |
| 2026-05-03 23:38 | 34.05683 | -117.54604 | 1576 ft | 68 kts | 264° |
| 2026-05-03 23:38 | 34.05687 | -117.55174 | 1497 ft | 71 kts | 265° |
| 2026-05-03 23:39 | 34.05684 | -117.55777 | 1403 ft | 71 kts | 265° |
| 2026-05-03 23:39 | 34.05680 | -117.56375 | 1298 ft | 72 kts | 264° |
| 2026-05-03 23:39 | 34.05670 | -117.56943 | 1205 ft | 65 kts | 269° |
| 2026-05-03 23:39 | 34.05691 | -117.57476 | 1124 ft | 64 kts | 265° |
| 2026-05-03 23:40 | 34.05687 | -117.58036 | 1039 ft | 68 kts | 264° |
| 2026-05-03 23:40 | 34.05689 | -117.58605 | 955 ft | 66 kts | 264° |
| 2026-05-03 23:40 | 34.05688 | -117.59095 | 943 ft | 50 kts | 271° |
| 2026-05-03 23:40 | 34.05689 | -117.59450 | 942 ft | 33 kts | 268° |
| 2026-05-03 23:41 | 34.05689 | -117.59717 | 941 ft | 31 kts | 270° |
| 2026-05-03 23:41 | 34.05689 | -117.59949 | 944 ft | 16 kts | 273° |
| 2026-05-03 23:41 | 34.05752 | -117.59992 | 944 ft | 12 kts | 359° |
| 2026-05-03 23:41 | 34.05798 | -117.60023 | 943 ft | 8 kts | 287° |
| 2026-05-03 23:42 | 34.05799 | -117.60106 | 944 ft | 12 kts | 269° |
| 2026-05-03 23:42 | 34.05799 | -117.60231 | 944 ft | 19 kts | 270° |
| 2026-05-03 23:42 | 34.05798 | -117.60430 | 944 ft | 27 kts | 271° |
| 2026-05-03 23:42 | 34.05798 | -117.60644 | 944 ft | 24 kts | 270° |
| 2026-05-03 23:43 | 34.05798 | -117.60850 | 943 ft | 20 kts | 271° |
| 2026-05-03 23:43 | 34.05798 | -117.61023 | 943 ft | 19 kts | 269° |
| 2026-05-03 23:43 | 34.05798 | -117.61180 | 943 ft | 19 kts | 270° |
| 2026-05-03 23:43 | 34.05798 | -117.61339 | 942 ft | 20 kts | 270° |
| 2026-05-03 23:44 | 34.05798 | -117.61521 | 942 ft | 23 kts | 270° |
| 2026-05-03 23:44 | 34.05797 | -117.61700 | 943 ft | 20 kts | 268° |
| 2026-05-03 23:44 | 34.05856 | -117.61786 | 943 ft | 16 kts | 322° |
| 2026-05-03 23:44 | 34.05871 | -117.61918 | 943 ft | 19 kts | 270° |
| 2026-05-03 23:45 | 34.05871 | -117.62087 | 944 ft | 20 kts | 270° |
| 2026-05-03 23:45 | 34.05870 | -117.62248 | 944 ft | 20 kts | 270° |
| 2026-05-03 23:45 | 34.05883 | -117.62354 | 944 ft | 7 kts | 326° |
| 2026-05-03 23:45 | 34.05952 | -117.62356 | 944 ft | 12 kts | 12° |
| 2026-05-03 23:46 | 34.05982 | -117.62328 | 944 ft | 1 kts | 45° |
| 2026-05-03 23:46 | 34.05982 | -117.62327 | 944 ft | 0 kts | 45° |